createdAt,value
2017-06-04T00:00:51.284Z,65.40
2017-06-04T00:03:17.608Z,65.80
2017-06-04T00:05:43.982Z,64.30
2017-06-04T00:08:10.283Z,64.90
2017-06-04T00:10:36.567Z,63.70
2017-06-04T00:13:03.578Z,63.80
2017-06-04T00:15:30.999Z,64.70
2017-06-04T00:22:53.661Z,64.50
2017-06-04T00:25:19.994Z,62.40
2017-06-04T00:27:46.330Z,62.60
2017-06-04T00:30:12.727Z,62.60
2017-06-04T00:32:39.057Z,59.70
2017-06-04T00:35:05.349Z,62.20
2017-06-04T00:37:31.641Z,61.30
2017-06-04T00:39:57.945Z,60.30
2017-06-04T00:42:24.226Z,61.30
2017-06-04T00:44:50.587Z,61.80
2017-06-04T00:47:17.657Z,62.80
2017-06-04T00:49:45.690Z,61.90
2017-06-04T00:52:11.976Z,62.20
2017-06-04T00:57:06.389Z,59.70
2017-06-04T00:59:33.582Z,61.40
2017-06-04T01:06:58.554Z,60.50
2017-06-04T01:09:27.238Z,62.00
2017-06-04T01:11:53.911Z,63.00
2017-06-04T01:16:48.964Z,65.10
2017-06-04T01:21:43.304Z,63.90
2017-06-04T01:29:05.625Z,62.90
2017-06-04T01:31:32.702Z,64.70
2017-06-04T01:33:58.978Z,63.90
2017-06-04T01:36:27.330Z,64.20
2017-06-04T01:38:53.647Z,64.30
2017-06-04T01:41:19.932Z,64.30
2017-06-04T01:43:47.003Z,64.80
2017-06-04T01:46:13.278Z,64.30
2017-06-04T01:48:39.602Z,64.40
2017-06-04T01:51:05.917Z,64.40
2017-06-04T01:53:33.345Z,64.50
2017-06-04T01:55:59.625Z,64.30
2017-06-04T02:03:22.250Z,65.70
2017-06-04T02:05:48.599Z,65.90
2017-06-04T02:08:15.234Z,66.00
2017-06-04T02:10:41.542Z,66.10
2017-06-04T02:13:07.814Z,66.30
2017-06-04T02:15:34.096Z,64.50
2017-06-04T02:18:01.474Z,64.60
2017-06-04T02:20:27.753Z,65.50
2017-06-04T02:22:54.059Z,66.10
2017-06-04T02:25:20.322Z,66.20
2017-06-04T02:27:47.342Z,65.80
2017-06-04T02:30:13.981Z,66.50
2017-06-04T02:32:40.254Z,65.40
2017-06-04T02:42:31.481Z,65.90
2017-06-04T02:44:57.764Z,64.70
2017-06-04T02:47:24.107Z,64.60
2017-06-04T02:49:50.795Z,64.90
2017-06-04T02:52:17.838Z,64.70
2017-06-04T02:54:44.144Z,64.20
2017-06-04T02:57:10.427Z,64.70
2017-06-04T02:59:36.725Z,64.70
2017-06-04T03:02:03.739Z,64.30
2017-06-04T03:04:30.030Z,63.40
2017-06-04T03:06:56.294Z,62.60
2017-06-04T03:11:53.467Z,63.90
2017-06-04T03:14:19.744Z,63.80
2017-06-04T03:16:46.055Z,64.40
2017-06-04T03:19:12.321Z,63.60
2017-06-04T03:24:07.329Z,64.10
2017-06-04T03:26:33.610Z,63.80
2017-06-04T03:29:00.618Z,64.70
2017-06-04T03:31:26.912Z,64.00
2017-06-04T03:33:53.245Z,63.40
2017-06-04T03:36:19.534Z,64.00
2017-06-04T03:38:46.541Z,64.80
2017-06-04T03:41:12.820Z,64.40
2017-06-04T03:48:35.102Z,65.00
2017-06-04T03:51:01.424Z,64.90
2017-06-04T03:53:28.057Z,64.70
2017-06-04T03:55:54.352Z,64.70
2017-06-04T03:58:20.622Z,64.80
2017-06-04T04:00:46.887Z,64.10
2017-06-04T04:03:13.162Z,64.10
2017-06-04T04:05:40.195Z,65.40
2017-06-04T04:08:06.494Z,64.80
2017-06-04T04:10:32.770Z,63.70
2017-06-04T04:12:59.048Z,64.10
2017-06-04T04:15:25.354Z,64.10
2017-06-04T04:17:51.634Z,64.10
2017-06-04T04:25:13.939Z,62.70
2017-06-04T04:27:40.222Z,63.40
2017-06-04T04:30:06.510Z,63.40
2017-06-04T04:32:32.807Z,64.20
2017-06-04T04:34:59.114Z,64.20
2017-06-04T04:37:27.705Z,63.90
2017-06-04T04:39:54.453Z,64.00
2017-06-04T04:42:21.490Z,63.80
2017-06-04T04:44:48.135Z,63.40
2017-06-04T04:47:15.146Z,63.80
2017-06-04T04:49:41.427Z,63.00
2017-06-04T04:52:08.080Z,63.20
2017-06-04T04:59:30.405Z,63.70
2017-06-04T05:01:57.433Z,64.60
2017-06-04T05:04:23.815Z,63.70
2017-06-04T05:06:50.102Z,62.10
2017-06-04T05:09:17.114Z,63.00
2017-06-04T05:11:43.398Z,61.60
2017-06-04T05:14:10.420Z,62.60
2017-06-04T05:16:37.468Z,61.80
2017-06-04T05:19:05.244Z,62.70
2017-06-04T05:21:31.552Z,62.70
2017-06-04T05:24:03.823Z,62.40
2017-06-04T05:28:58.666Z,62.50
2017-06-04T05:31:25.202Z,61.90
2017-06-04T05:33:51.730Z,62.60
2017-06-04T05:36:18.255Z,62.60
2017-06-04T05:38:44.810Z,63.50
2017-06-04T05:41:11.301Z,64.40
2017-06-04T05:43:37.737Z,62.70
2017-06-04T05:46:04.993Z,63.60
2017-06-04T05:48:31.546Z,62.60
2017-06-04T05:50:58.596Z,64.20
2017-06-04T05:53:25.173Z,63.30
2017-06-04T05:55:52.550Z,62.80
2017-06-04T05:58:19.859Z,64.70
2017-06-04T06:03:15.122Z,63.70
2017-06-04T06:05:42.399Z,64.00
2017-06-04T06:08:09.638Z,64.90
2017-06-04T06:10:36.796Z,62.70
2017-06-04T06:13:03.308Z,62.50
2017-06-04T06:15:30.557Z,62.50
2017-06-04T06:17:56.960Z,61.70
2017-06-04T06:20:23.581Z,63.30
2017-06-04T06:22:50.121Z,62.40
2017-06-04T06:25:16.950Z,62.30
2017-06-04T06:27:43.544Z,59.20
2017-06-04T06:30:10.789Z,58.50
2017-06-04T06:37:33.734Z,58.00
2017-06-04T06:40:00.254Z,61.30
2017-06-04T06:42:26.783Z,61.40
2017-06-04T06:44:53.306Z,60.00
2017-06-04T06:47:19.903Z,58.50
2017-06-04T06:49:46.427Z,60.30
2017-06-04T06:52:12.922Z,58.80
2017-06-04T06:54:39.469Z,58.40
2017-06-04T06:57:05.967Z,57.90
2017-06-04T06:59:32.579Z,56.90
2017-06-04T07:01:59.826Z,58.90
2017-06-04T07:04:26.342Z,58.50
2017-06-04T07:11:50.538Z,59.40
2017-06-04T07:14:17.155Z,58.60
2017-06-04T07:16:43.659Z,56.10
2017-06-04T07:19:10.230Z,57.40
2017-06-04T07:21:37.115Z,56.90
2017-06-04T07:24:04.374Z,57.70
2017-06-04T07:26:31.606Z,56.30
2017-06-04T07:28:58.890Z,51.40
2017-06-04T07:31:26.187Z,54.50
2017-06-04T07:33:52.677Z,52.10
2017-06-04T07:36:19.218Z,53.40
2017-06-04T07:38:45.757Z,54.80
2017-06-04T07:43:41.263Z,57.10
2017-06-04T07:46:08.334Z,54.90
2017-06-04T07:48:34.724Z,55.10
2017-06-04T07:51:00.996Z,53.20
2017-06-04T07:53:27.286Z,51.30
2017-06-04T07:55:54.311Z,50.80
2017-06-04T07:58:20.642Z,53.60
2017-06-04T08:00:48.104Z,53.80
2017-06-04T08:03:14.459Z,55.30
2017-06-04T08:05:41.506Z,52.40
2017-06-04T08:08:08.531Z,53.80
2017-06-04T08:10:34.810Z,51.50
2017-06-04T08:13:01.142Z,52.00
2017-06-04T08:20:23.530Z,47.90
2017-06-04T08:22:49.810Z,49.10
2017-06-04T08:25:16.948Z,51.90
2017-06-04T08:27:43.958Z,51.50
2017-06-04T08:30:10.222Z,51.80
2017-06-04T08:32:36.677Z,49.50
2017-06-04T08:35:02.974Z,49.80
2017-06-04T08:37:30.035Z,49.90
2017-06-04T08:39:56.309Z,49.40
2017-06-04T08:42:22.597Z,46.40
2017-06-04T08:44:48.926Z,48.00
2017-06-04T08:47:15.232Z,47.40
2017-06-04T08:49:41.531Z,47.40
2017-06-04T08:54:36.252Z,43.50
2017-06-04T08:57:02.570Z,42.70
2017-06-04T08:59:28.874Z,42.70
2017-06-04T09:01:55.162Z,44.20
2017-06-04T09:04:22.218Z,44.90
2017-06-04T09:06:49.297Z,44.20
2017-06-04T09:09:15.572Z,43.60
2017-06-04T09:11:41.883Z,45.30
2017-06-04T09:14:08.537Z,44.70
2017-06-04T09:16:35.198Z,43.90
2017-06-04T09:19:01.545Z,46.30
2017-06-04T09:21:29.734Z,45.10
2017-06-04T09:23:58.218Z,44.40
2017-06-04T09:28:53.405Z,44.60
2017-06-04T09:31:20.074Z,43.20
2017-06-04T09:33:46.442Z,43.40
2017-06-04T09:36:12.912Z,41.50
2017-06-04T09:38:39.922Z,44.90
2017-06-04T09:41:06.221Z,42.80
2017-06-04T09:43:32.567Z,42.40
2017-06-04T09:45:58.898Z,42.80
2017-06-04T09:48:25.221Z,43.20
2017-06-04T09:50:51.479Z,42.50
2017-06-04T09:53:18.523Z,40.90
2017-06-04T09:55:44.842Z,42.40
2017-06-04T09:58:11.863Z,42.00
2017-06-04T10:05:34.256Z,44.30
2017-06-04T10:08:00.554Z,44.20
2017-06-04T10:10:28.330Z,43.80
2017-06-04T10:12:54.610Z,46.50
2017-06-04T10:15:20.874Z,49.40
2017-06-04T10:17:47.158Z,43.90
2017-06-04T10:20:14.174Z,55.60
2017-06-04T10:22:41.584Z,41.80
2017-06-04T10:25:09.104Z,41.00
2017-06-04T10:27:36.114Z,41.80
2017-06-04T10:30:02.415Z,39.10
2017-06-04T10:32:30.445Z,40.40
2017-06-04T10:37:24.795Z,39.80
2017-06-04T10:39:51.839Z,42.40
2017-06-04T10:42:18.164Z,42.80
2017-06-04T10:44:46.147Z,43.40
2017-06-04T10:47:16.234Z,43.30
2017-06-04T10:49:42.730Z,43.60
2017-06-04T10:52:11.144Z,42.50
2017-06-04T10:54:37.437Z,43.70
2017-06-04T10:57:04.226Z,40.40
2017-06-04T10:59:30.602Z,39.50
2017-06-04T11:01:57.635Z,38.90
2017-06-04T11:04:23.950Z,38.80
2017-06-04T11:11:47.833Z,37.50
2017-06-04T11:14:14.191Z,36.10
2017-06-04T11:16:40.560Z,36.80
2017-06-04T11:19:07.724Z,38.60
2017-06-04T11:21:35.111Z,40.80
2017-06-04T11:24:01.515Z,39.50
2017-06-04T11:26:27.954Z,40.10
2017-06-04T11:28:54.375Z,38.60
2017-06-04T11:31:20.798Z,40.30
2017-06-04T11:33:47.094Z,39.00
2017-06-04T11:36:14.179Z,41.00
2017-06-04T11:38:40.451Z,39.10
2017-06-04T11:43:35.878Z,40.30
2017-06-04T11:46:02.934Z,40.10
2017-06-04T11:48:32.658Z,39.80
2017-06-04T11:50:59.718Z,39.00
2017-06-04T11:53:26.748Z,40.10
2017-06-04T11:58:21.099Z,39.40
2017-06-04T12:00:47.390Z,38.20
2017-06-04T12:03:14.451Z,39.60
2017-06-04T12:05:40.775Z,37.60
2017-06-04T12:15:31.333Z,35.60
2017-06-04T12:17:57.631Z,35.60
2017-06-04T12:20:26.531Z,37.10
2017-06-04T12:22:53.955Z,35.00
2017-06-04T12:25:20.234Z,35.00
2017-06-04T12:27:46.615Z,35.30
2017-06-04T12:30:12.913Z,34.00
2017-06-04T12:32:39.221Z,34.30
2017-06-04T12:42:30.959Z,34.10
2017-06-04T12:47:26.074Z,33.50
2017-06-04T12:49:53.934Z,35.00
2017-06-04T12:52:20.286Z,36.30
2017-06-04T12:54:46.556Z,33.50
2017-06-04T12:57:12.866Z,36.50
2017-06-04T13:02:07.131Z,34.10
2017-06-04T13:07:02.560Z,35.50
2017-06-04T13:09:28.858Z,33.90
2017-06-04T13:11:56.118Z,35.90
2017-06-04T13:14:23.985Z,35.30
2017-06-04T13:19:19.808Z,35.00
2017-06-04T13:24:14.920Z,37.40
2017-06-04T13:26:41.210Z,37.50
2017-06-04T13:29:08.355Z,37.00
2017-06-04T13:31:35.051Z,38.10
2017-06-04T13:34:02.097Z,37.00
2017-06-04T13:36:29.328Z,37.00
2017-06-04T13:38:55.630Z,36.90
2017-06-04T13:41:21.923Z,41.40
2017-06-04T13:43:48.247Z,42.20
2017-06-04T13:46:14.550Z,40.60
2017-06-04T13:53:36.836Z,44.60
2017-06-04T13:56:04.912Z,43.30
2017-06-04T13:58:32.342Z,43.10
2017-06-04T14:03:27.971Z,42.00
2017-06-04T14:05:55.676Z,40.50
2017-06-04T14:08:22.292Z,38.70
2017-06-04T14:10:48.983Z,37.40
2017-06-04T14:13:20.553Z,38.90
2017-06-04T14:15:47.075Z,39.40
2017-06-04T14:18:14.803Z,38.80
2017-06-04T14:23:09.402Z,35.80
2017-06-04T14:25:35.784Z,37.40
2017-06-04T14:28:02.116Z,35.20
2017-06-04T14:30:29.539Z,32.00
2017-06-04T14:32:55.862Z,32.80
2017-06-04T14:35:22.210Z,33.50
2017-06-04T14:37:49.703Z,31.80
2017-06-04T14:40:16.032Z,32.50
2017-06-04T14:42:43.059Z,33.80
2017-06-04T14:45:09.367Z,33.90
2017-06-04T14:47:35.750Z,36.20
2017-06-04T14:50:03.617Z,35.20
2017-06-04T14:52:31.519Z,36.40
2017-06-04T14:54:58.167Z,36.80
2017-06-04T14:57:26.138Z,36.50
2017-06-04T14:59:52.442Z,36.90
2017-06-04T15:02:18.775Z,37.70
2017-06-04T15:07:13.211Z,37.20
2017-06-04T15:09:39.566Z,37.90
2017-06-04T15:12:05.844Z,37.90
2017-06-04T15:14:33.610Z,38.40
2017-06-04T15:16:59.913Z,38.70
2017-06-04T15:21:55.467Z,37.80
2017-06-04T15:24:21.812Z,38.30
2017-06-04T15:26:48.114Z,37.90
2017-06-04T15:29:15.990Z,39.00
2017-06-04T15:36:42.858Z,39.20
2017-06-04T15:39:09.130Z,38.90
2017-06-04T15:41:35.466Z,38.30
2017-06-04T15:44:01.811Z,38.90
2017-06-04T15:46:28.071Z,37.60
2017-06-04T15:51:23.467Z,38.30
2017-06-04T15:53:50.478Z,37.10
2017-06-04T15:56:17.535Z,38.60
2017-06-04T16:03:40.750Z,34.10
2017-06-04T16:06:07.406Z,34.80
2017-06-04T16:08:33.724Z,33.30
2017-06-04T16:13:28.146Z,34.60
2017-06-04T16:15:55.551Z,33.20
2017-06-04T16:18:21.844Z,35.70
2017-06-04T16:20:49.618Z,34.40
2017-06-04T16:23:17.482Z,36.00
2017-06-04T16:25:45.445Z,34.60
2017-06-04T16:28:12.636Z,35.80
2017-06-04T16:35:36.496Z,36.70
2017-06-04T16:38:03.531Z,37.40
2017-06-04T16:40:29.871Z,37.70
2017-06-04T16:42:56.664Z,36.70
2017-06-04T16:47:51.227Z,38.00
2017-06-04T16:52:48.388Z,37.70
2017-06-04T16:55:15.414Z,37.60
2017-06-04T16:57:41.707Z,36.70
2017-06-04T17:00:08.095Z,36.40
2017-06-04T17:07:30.507Z,36.20
2017-06-04T17:09:56.834Z,35.20
2017-06-04T17:12:23.126Z,35.80
2017-06-04T17:14:50.162Z,36.60
2017-06-04T17:17:16.446Z,36.40
2017-06-04T17:19:43.910Z,36.90
2017-06-04T17:22:10.224Z,36.50
2017-06-04T17:24:36.719Z,37.70
2017-06-04T17:27:04.157Z,37.10
2017-06-04T17:29:30.457Z,37.50
2017-06-04T17:31:57.858Z,36.50
2017-06-04T17:34:25.293Z,37.20
2017-06-04T17:44:15.710Z,37.50
2017-06-04T17:46:42.770Z,36.80
2017-06-04T17:49:09.067Z,36.60
2017-06-04T17:51:35.710Z,36.50
2017-06-04T17:54:02.366Z,36.70
2017-06-04T17:56:29.050Z,37.50
2017-06-04T17:58:55.368Z,36.90
2017-06-04T18:01:22.392Z,37.20
2017-06-04T18:03:48.703Z,37.00
2017-06-04T18:06:15.392Z,37.00
2017-06-04T18:08:41.699Z,37.50
2017-06-04T18:16:04.163Z,37.20
2017-06-04T18:18:31.203Z,38.00
2017-06-04T18:21:04.360Z,38.60
2017-06-04T18:23:30.685Z,37.70
2017-06-04T18:25:58.488Z,37.80
2017-06-04T18:28:24.790Z,37.70
2017-06-04T18:30:51.092Z,37.20
2017-06-04T18:33:17.367Z,37.70
2017-06-04T18:35:44.402Z,36.90
2017-06-04T18:38:10.738Z,37.20
2017-06-04T18:48:01.083Z,38.20
2017-06-04T18:50:28.130Z,37.60
2017-06-04T18:52:54.431Z,37.40
2017-06-04T18:55:20.794Z,36.90
2017-06-04T18:57:47.068Z,37.40
2017-06-04T19:00:13.370Z,37.10
2017-06-04T19:02:39.661Z,37.20
2017-06-04T19:05:07.135Z,37.80
2017-06-04T19:07:34.910Z,37.40
2017-06-04T19:10:01.991Z,37.50
2017-06-04T19:12:28.375Z,36.40
2017-06-04T19:14:55.839Z,35.20
2017-06-04T19:19:50.219Z,32.50
2017-06-04T19:22:16.531Z,32.50
2017-06-04T19:24:42.810Z,32.20
2017-06-04T19:29:37.198Z,32.20
2017-06-04T19:32:03.502Z,32.20
2017-06-04T19:34:29.827Z,32.00
2017-06-04T19:36:56.142Z,31.90
2017-06-04T19:39:22.418Z,31.90
2017-06-04T19:41:49.442Z,31.60
2017-06-04T19:44:16.103Z,30.80
2017-06-04T19:46:43.155Z,32.70
2017-06-04T19:49:09.504Z,30.90
2017-06-04T19:56:31.947Z,31.20
2017-06-04T20:01:27.688Z,29.70
2017-06-04T20:08:51.558Z,29.30
2017-06-04T20:13:46.011Z,29.70
2017-06-04T20:16:13.460Z,29.90
2017-06-04T20:18:39.837Z,29.60
2017-06-04T20:26:04.605Z,29.90
2017-06-04T20:28:31.362Z,29.80
2017-06-04T20:33:27.615Z,29.90
2017-06-04T20:35:54.698Z,30.00
2017-06-04T20:38:21.024Z,30.10
2017-06-04T20:43:17.076Z,30.00
2017-06-04T20:45:44.997Z,30.00
2017-06-04T20:48:11.386Z,30.30
2017-06-04T21:00:31.807Z,31.00
2017-06-04T21:02:58.966Z,32.20
2017-06-04T21:05:25.630Z,32.10
2017-06-04T21:07:52.751Z,32.00
2017-06-04T21:10:19.525Z,32.30
2017-06-04T21:12:45.835Z,30.80
2017-06-04T21:15:12.173Z,30.80
2017-06-04T21:17:38.863Z,32.70
2017-06-04T21:20:06.647Z,32.20
2017-06-04T21:22:34.546Z,31.70
2017-06-04T21:27:30.252Z,31.20
2017-06-04T21:29:57.686Z,31.80
2017-06-04T21:32:26.229Z,30.50
2017-06-04T21:34:52.633Z,30.60
2017-06-04T21:37:20.001Z,30.50
2017-06-04T21:39:46.638Z,30.80
2017-06-04T21:44:41.814Z,34.40
2017-06-04T21:47:08.715Z,32.10
2017-06-04T21:49:36.127Z,36.70
2017-06-04T21:52:06.492Z,35.80
2017-06-04T21:59:30.897Z,36.20
2017-06-04T22:01:57.648Z,35.60
2017-06-04T22:04:24.534Z,37.20
2017-06-04T22:09:20.292Z,39.80
2017-06-04T22:11:48.423Z,38.50
2017-06-04T22:14:15.666Z,37.20
2017-06-04T22:16:42.174Z,39.10
2017-06-04T22:24:13.826Z,37.50
2017-06-04T22:29:08.704Z,40.30
2017-06-04T22:31:36.306Z,39.40
2017-06-04T22:34:02.846Z,37.50
2017-06-04T22:36:29.362Z,37.00
2017-06-04T22:38:56.626Z,37.50
2017-06-04T22:41:23.132Z,36.80
2017-06-04T22:43:51.186Z,36.60
2017-06-04T22:46:23.965Z,32.80
2017-06-04T22:56:16.467Z,34.70
2017-06-04T22:58:43.396Z,33.90
2017-06-04T23:01:09.904Z,33.90
2017-06-04T23:03:36.505Z,35.00
2017-06-04T23:06:03.796Z,36.10
2017-06-04T23:10:59.734Z,33.90
2017-06-04T23:13:27.064Z,33.80
2017-06-04T23:15:53.966Z,34.00
2017-06-04T23:18:20.546Z,34.90
2017-06-04T23:25:44.292Z,34.10
2017-06-04T23:28:10.801Z,35.20
2017-06-04T23:30:38.437Z,33.40
2017-06-04T23:33:04.971Z,34.10
2017-06-04T23:35:32.220Z,33.70
2017-06-04T23:37:58.764Z,32.70
2017-06-04T23:40:25.289Z,32.70
2017-06-04T23:42:52.413Z,32.10
2017-06-04T23:45:19.683Z,33.20
2017-06-04T23:47:46.263Z,32.00
2017-06-04T23:57:38.934Z,33.30
